Time;durP1;ratioP1;P1;durP2;ratioP2;P2;SDS_P1;SDS_P2;PMS_P1;PMS_P2;Temp;Humidity;BMP_temperature;BMP_pressure;BME280_temperature;BME280_humidity;BME280_pressure;Samples;Min_cycle;Max_cycle;Signal;HPM_P1;HPM_P2
2021/01/16 00:00:18;;;;;;;3.35;2.80;;;2.00;99.90;;;;;;5018566;28;20601;-58
2021/01/16 00:02:44;;;;;;;2.67;1.00;;;2.00;99.90;;;;;;5025903;28;20186;-58
2021/01/16 00:05:10;;;;;;;2.10;1.33;;;2.00;99.90;;;;;;5023389;28;20269;-58
2021/01/16 00:07:36;;;;;;;1.70;0.30;;;2.00;99.90;;;;;;5022688;28;20198;-58
2021/01/16 00:10:02;;;;;;;3.47;2.70;;;2.00;99.90;;;;;;5005397;28;20641;-58
2021/01/16 00:12:27;;;;;;;8.00;5.00;;;2.00;99.90;;;;;;5014610;28;20249;-58
2021/01/16 00:14:55;;;;;;;1.70;0.20;;;2.00;99.90;;;;;;5024108;28;20218;-58
2021/01/16 00:17:20;;;;;;;3.80;1.85;;;2.00;99.90;;;;;;5023449;28;20217;-58
2021/01/16 00:19:46;;;;;;;1.70;0.20;;;2.00;99.90;;;;;;5014223;28;20281;-58
2021/01/16 00:22:12;;;;;;;4.13;2.13;;;2.00;99.90;;;;;;5013390;28;20187;-57
2021/01/16 00:24:37;;;;;;;12.40;2.60;;;2.10;99.90;;;;;;5020031;28;20257;-58
2021/01/16 00:27:03;;;;;;;1.70;0.20;;;2.00;99.90;;;;;;5014923;28;20198;-59
2021/01/16 00:29:29;;;;;;;9.70;4.63;;;2.00;99.90;;;;;;5017865;28;20201;-58
2021/01/16 00:31:54;;;;;;;1.90;0.70;;;2.00;99.90;;;;;;5024769;28;20676;-57
2021/01/16 00:34:20;;;;;;;1.70;0.30;;;2.00;99.90;;;;;;5019827;28;20225;-59
2021/01/16 00:36:46;;;;;;;1.70;0.30;;;2.00;99.90;;;;;;5023035;28;20195;-58
2021/01/16 00:39:11;;;;;;;1.70;0.20;;;2.00;99.90;;;;;;5022956;28;20256;-58
2021/01/16 00:41:37;;;;;;;8.63;3.00;;;2.00;99.90;;;;;;5015361;28;20190;-57
2021/01/16 00:44:03;;;;;;;4.03;0.83;;;2.00;99.90;;;;;;5019726;28;20198;-58
2021/01/16 00:46:28;;;;;;;2.53;0.97;;;2.00;99.90;;;;;;5019572;28;20190;-58
2021/01/16 00:48:55;;;;;;;1.70;0.20;;;2.00;99.90;;;;;;5019406;28;20504;-58
2021/01/16 00:51:21;;;;;;;3.35;1.73;;;2.00;99.90;;;;;;5027264;28;20194;-58
2021/01/16 00:53:46;;;;;;;4.03;2.90;;;2.00;99.90;;;;;;5018944;28;20210;-58
2021/01/16 00:56:12;;;;;;;5.30;1.70;;;2.00;99.90;;;;;;5019418;28;20270;-59
2021/01/16 00:58:38;;;;;;;5.80;3.90;;;2.00;99.90;;;;;;5019984;28;20225;-58
2021/01/16 01:01:03;;;;;;;4.07;2.43;;;1.90;99.90;;;;;;5018298;28;20209;-58
2021/01/16 01:03:29;;;;;;;2.00;0.37;;;1.90;99.90;;;;;;5021033;28;20524;-58
2021/01/16 01:05:56;;;;;;;11.83;3.60;;;1.90;99.90;;;;;;5022066;28;20266;-58
2021/01/16 01:08:31;;;;;;;3.08;2.05;;;1.90;99.90;;;;;;5016885;28;20217;-58
2021/01/16 01:10:57;;;;;;;18.63;16.98;;;1.90;99.90;;;;;;5019138;28;20186;-60
2021/01/16 01:13:23;;;;;;;1.70;0.20;;;1.90;99.90;;;;;;5020562;28;20582;-58
2021/01/16 01:15:48;;;;;;;1.70;0.20;;;2.00;99.90;;;;;;5016810;28;20187;-58
2021/01/16 01:18:14;;;;;;;1.70;0.20;;;2.00;99.90;;;;;;5018606;28;20444;-58
2021/01/16 01:20:39;;;;;;;1.70;0.20;;;2.00;99.90;;;;;;5022797;28;20185;-58
2021/01/16 01:23:05;;;;;;;3.90;2.37;;;2.10;99.90;;;;;;5013811;28;20187;-57
2021/01/16 01:25:31;;;;;;;1.70;0.20;;;2.00;99.90;;;;;;5020175;28;20198;-58
2021/01/16 01:27:58;;;;;;;1.70;0.20;;;2.00;99.90;;;;;;5018312;28;20301;-58
2021/01/16 01:30:27;;;;;;;13.80;3.05;;;2.00;99.90;;;;;;5016431;28;20875;-58
2021/01/16 01:32:54;;;;;;;3.13;2.38;;;2.00;99.90;;;;;;5018348;28;20202;-58
2021/01/16 01:35:20;;;;;;;4.32;3.30;;;2.00;99.90;;;;;;5019758;28;20182;-58
2021/01/16 01:37:49;;;;;;;1.70;0.20;;;2.00;99.90;;;;;;5017625;28;20704;-58
2021/01/16 01:40:16;;;;;;;1.73;0.20;;;2.00;99.90;;;;;;5024286;28;20187;-58
2021/01/16 01:42:45;;;;;;;2.63;0.57;;;2.00;99.90;;;;;;5014573;28;20179;-58
2021/01/16 01:45:11;;;;;;;3.60;1.35;;;2.00;99.90;;;;;;5019377;28;20646;-58
2021/01/16 01:47:42;;;;;;;1.70;0.20;;;2.00;99.90;;;;;;5024923;28;20211;-58
2021/01/16 01:50:10;;;;;;;2.85;2.65;;;2.00;99.90;;;;;;5024194;28;20427;-58
2021/01/16 01:52:37;;;;;;;6.95;3.88;;;2.00;99.90;;;;;;5026207;28;20343;-58
2021/01/16 01:55:04;;;;;;;1.73;0.20;;;2.00;99.90;;;;;;5028055;28;20189;-63
2021/01/16 01:57:33;;;;;;;1.70;0.20;;;2.00;99.90;;;;;;5016837;28;20206;-58
2021/01/16 02:00:02;;;;;;;1.70;0.30;;;2.00;99.90;;;;;;5023283;28;20233;-59
2021/01/16 02:02:31;;;;;;;1.70;0.20;;;2.10;99.90;;;;;;5020137;28;20274;-59
2021/01/16 02:04:59;;;;;;;4.53;3.85;;;2.10;99.90;;;;;;5012811;28;20197;-59
2021/01/16 02:07:29;;;;;;;4.03;1.38;;;2.00;99.90;;;;;;5012874;28;20216;-58
2021/01/16 02:09:55;;;;;;;5.25;3.85;;;1.90;99.90;;;;;;5020777;28;20207;-57
2021/01/16 02:12:22;;;;;;;1.77;0.32;;;1.80;99.90;;;;;;5013996;28;20237;-58
2021/01/16 02:15:03;;;;;;;1.90;0.60;;;1.80;99.90;;;;;;5020418;28;20178;-58
2021/01/16 02:17:32;;;;;;;6.35;3.10;;;1.70;99.90;;;;;;5020170;28;20209;-58
2021/01/16 02:20:01;;;;;;;4.93;2.83;;;1.80;99.90;;;;;;5013804;28;20178;-58
2021/01/16 02:22:31;;;;;;;2.35;1.05;;;1.80;99.90;;;;;;5014260;28;20207;-58
2021/01/16 02:25:12;;;;;;;6.03;3.42;;;1.70;99.90;;;;;;5022497;28;20193;-58
2021/01/16 02:27:54;;;;;;;2.47;0.82;;;1.70;99.90;;;;;;5019538;28;20205;-58
2021/01/16 02:30:20;;;;;;;6.90;4.18;;;1.70;99.90;;;;;;5017469;28;20274;-58
2021/01/16 02:32:48;;;;;;;2.10;0.60;;;1.80;99.90;;;;;;5020423;28;20219;-59
2021/01/16 02:35:16;;;;;;;1.80;0.50;;;1.70;99.90;;;;;;5013486;28;20199;-56
2021/01/16 02:37:51;;;;;;;1.70;0.20;;;1.70;99.90;;;;;;5016846;28;20273;-58
2021/01/16 02:40:24;;;;;;;6.05;3.28;;;1.80;99.90;;;;;;5010352;28;20173;-58
2021/01/16 02:43:18;;;;;;;3.63;2.33;;;1.80;99.90;;;;;;5014241;28;20191;-58
2021/01/16 02:46:01;;;;;;;4.43;2.97;;;1.80;99.90;;;;;;5014163;28;20183;-57
2021/01/16 02:48:43;;;;;;;2.15;0.65;;;1.80;99.90;;;;;;5017125;28;20268;-58
2021/01/16 02:51:14;;;;;;;1.90;0.57;;;1.80;99.90;;;;;;5019790;28;20182;-58
2021/01/16 02:53:45;;;;;;;1.70;0.20;;;1.80;99.90;;;;;;5013747;28;20207;-58
2021/01/16 02:56:14;;;;;;;1.70;0.20;;;1.80;99.90;;;;;;5010566;28;20178;-58
2021/01/16 02:58:40;;;;;;;1.70;0.20;;;1.90;99.90;;;;;;5023487;28;20214;-58
2021/01/16 03:01:05;;;;;;;2.00;0.67;;;2.00;99.90;;;;;;5017331;28;20177;-59
2021/01/16 03:03:31;;;;;;;1.70;0.20;;;2.00;99.90;;;;;;5021551;28;20646;-59
2021/01/16 03:05:57;;;;;;;2.10;1.10;;;2.00;99.90;;;;;;5018258;28;20221;-58
2021/01/16 03:08:23;;;;;;;1.70;0.20;;;2.10;99.90;;;;;;5018301;28;20689;-58
2021/01/16 03:10:49;;;;;;;2.20;0.85;;;2.10;99.90;;;;;;5022044;28;20642;-58
2021/01/16 03:13:14;;;;;;;1.73;0.20;;;2.10;99.90;;;;;;5021730;28;20231;-58
2021/01/16 03:15:43;;;;;;;1.70;0.20;;;2.10;99.90;;;;;;5020804;28;20186;-58
2021/01/16 03:18:12;;;;;;;1.73;0.20;;;2.10;99.90;;;;;;5027048;28;20221;-58
2021/01/16 03:20:37;;;;;;;1.70;0.20;;;2.10;99.90;;;;;;5020149;28;20229;-59
2021/01/16 03:23:03;;;;;;;2.00;0.70;;;2.20;99.90;;;;;;5022081;28;20709;-58
2021/01/16 03:25:30;;;;;;;1.70;0.30;;;2.20;99.90;;;;;;5020016;28;20186;-58
2021/01/16 03:27:57;;;;;;;1.70;0.20;;;2.10;99.90;;;;;;5020838;28;20263;-58
2021/01/16 03:30:23;;;;;;;1.70;0.20;;;2.10;99.90;;;;;;5027631;28;20179;-58
2021/01/16 03:32:50;;;;;;;1.73;0.20;;;2.20;99.90;;;;;;5029399;28;20221;-57
2021/01/16 03:35:23;;;;;;;1.70;0.20;;;2.20;99.90;;;;;;5024089;28;20204;-58
2021/01/16 03:37:49;;;;;;;1.92;0.63;;;2.20;99.90;;;;;;5037671;28;20208;-59
2021/01/16 03:40:15;;;;;;;1.70;0.30;;;2.10;99.90;;;;;;5042617;28;20205;-61
2021/01/16 03:42:42;;;;;;;1.70;0.20;;;2.00;99.90;;;;;;5035685;28;20178;-58
2021/01/16 03:45:10;;;;;;;6.60;1.55;;;2.10;99.90;;;;;;5037671;28;20202;-62
2021/01/16 03:47:36;;;;;;;10.30;5.50;;;2.10;99.90;;;;;;5035643;28;20210;-61
2021/01/16 03:50:03;;;;;;;5.13;2.60;;;1.90;99.90;;;;;;5038431;28;20182;-58
2021/01/16 03:52:34;;;;;;;1.70;0.20;;;1.90;99.90;;;;;;5041845;28;20540;-58
2021/01/16 03:55:00;;;;;;;1.70;0.20;;;1.80;99.90;;;;;;5037241;28;20174;-58
2021/01/16 03:57:26;;;;;;;1.70;0.20;;;1.80;99.90;;;;;;5042750;28;20214;-58
2021/01/16 03:59:55;;;;;;;1.90;0.50;;;1.80;99.90;;;;;;5044872;28;20250;-58
2021/01/16 04:02:21;;;;;;;1.70;0.30;;;1.80;99.90;;;;;;5044480;28;20194;-62
2021/01/16 04:04:47;;;;;;;2.35;1.00;;;1.80;99.90;;;;;;5041601;28;20203;-59
2021/01/16 04:07:13;;;;;;;2.15;0.75;;;1.80;99.90;;;;;;5046099;28;20207;-58
2021/01/16 04:09:40;;;;;;;1.70;0.20;;;1.70;99.90;;;;;;5036387;28;20207;-59
2021/01/16 04:12:06;;;;;;;1.70;0.20;;;1.80;99.90;;;;;;5039700;28;20183;-58
2021/01/16 04:14:32;;;;;;;1.70;0.20;;;1.80;99.90;;;;;;5027473;28;20241;-58
2021/01/16 04:16:57;;;;;;;2.00;1.07;;;1.80;99.90;;;;;;5017385;28;20214;-58
2021/01/16 04:19:23;;;;;;;1.70;0.20;;;1.80;99.90;;;;;;5021802;28;20183;-58
2021/01/16 04:21:48;;;;;;;1.80;0.20;;;1.70;99.90;;;;;;5024234;28;20174;-58
2021/01/16 04:24:14;;;;;;;2.10;1.23;;;1.80;99.90;;;;;;5014692;28;20654;-58
2021/01/16 04:26:40;;;;;;;1.70;0.20;;;1.70;99.90;;;;;;5015605;28;20707;-58
2021/01/16 04:29:05;;;;;;;1.70;0.20;;;1.70;99.90;;;;;;5019027;28;20186;-58
2021/01/16 04:31:31;;;;;;;1.70;0.20;;;1.70;99.90;;;;;;5014231;28;20218;-57
2021/01/16 04:33:57;;;;;;;1.70;0.20;;;1.80;99.90;;;;;;5021503;28;20909;-58
2021/01/16 04:36:22;;;;;;;2.10;0.50;;;1.80;99.90;;;;;;5022072;28;20186;-58
2021/01/16 04:38:48;;;;;;;4.83;2.87;;;1.90;99.90;;;;;;5000071;28;20672;-58
2021/01/16 04:41:14;;;;;;;1.73;0.20;;;1.80;99.90;;;;;;5018361;28;20265;-58
2021/01/16 04:43:40;;;;;;;1.70;0.20;;;1.70;99.90;;;;;;5017126;28;20217;-58
2021/01/16 04:46:08;;;;;;;1.73;0.20;;;1.80;99.90;;;;;;5017645;28;20268;-57
2021/01/16 04:48:35;;;;;;;1.70;0.20;;;1.80;99.90;;;;;;5016924;28;20203;-58
2021/01/16 04:51:02;;;;;;;1.70;0.20;;;1.70;99.90;;;;;;5017625;28;20186;-58
2021/01/16 04:53:39;;;;;;;1.70;0.20;;;1.80;99.90;;;;;;5018219;28;20523;-58
2021/01/16 04:56:09;;;;;;;1.90;0.55;;;1.70;99.90;;;;;;5011540;28;20182;-58
2021/01/16 04:58:39;;;;;;;1.70;0.20;;;1.70;99.90;;;;;;5013974;28;20279;-57
2021/01/16 05:01:07;;;;;;;1.73;0.20;;;1.70;99.90;;;;;;5008643;28;20210;-57
2021/01/16 05:03:38;;;;;;;2.45;0.65;;;1.70;99.90;;;;;;5023096;28;20195;-58
2021/01/16 05:06:08;;;;;;;1.90;0.30;;;1.60;99.90;;;;;;5015872;28;20579;-58
2021/01/16 05:08:37;;;;;;;1.90;0.90;;;1.50;99.90;;;;;;5013058;28;20221;-58
2021/01/16 05:11:06;;;;;;;1.70;0.20;;;1.50;99.90;;;;;;5017000;28;20202;-57
2021/01/16 05:13:42;;;;;;;1.70;0.20;;;1.50;99.90;;;;;;5016085;28;20211;-59
2021/01/16 05:16:11;;;;;;;1.90;0.60;;;1.60;99.90;;;;;;5007191;28;20550;-58
2021/01/16 05:18:37;;;;;;;1.70;0.20;;;1.50;99.90;;;;;;5019262;28;20207;-59
2021/01/16 05:21:03;;;;;;;1.75;0.20;;;1.60;99.90;;;;;;5015921;28;20185;-57
2021/01/16 05:23:31;;;;;;;1.70;0.20;;;1.60;99.90;;;;;;5018701;28;20191;-58
2021/01/16 05:25:56;;;;;;;1.70;0.20;;;1.70;99.90;;;;;;5024631;28;20262;-58
2021/01/16 05:28:24;;;;;;;1.70;0.20;;;1.60;99.90;;;;;;5018689;28;20217;-57
2021/01/16 05:30:55;;;;;;;1.70;0.20;;;1.60;99.90;;;;;;5019149;28;20242;-58
2021/01/16 05:33:27;;;;;;;1.70;0.20;;;1.60;99.90;;;;;;5013017;28;20210;-58
2021/01/16 05:35:56;;;;;;;1.70;0.20;;;1.60;99.90;;;;;;5012176;28;20181;-58
2021/01/16 05:38:39;;;;;;;1.70;0.20;;;1.60;99.90;;;;;;5012163;28;20700;-57
2021/01/16 05:41:10;;;;;;;1.70;0.20;;;1.60;99.90;;;;;;5017918;28;20182;-58
2021/01/16 05:43:38;;;;;;;1.90;0.30;;;1.60;99.90;;;;;;5019389;28;20279;-58
2021/01/16 05:46:06;;;;;;;1.70;0.20;;;1.70;99.90;;;;;;5005516;28;20598;-58
2021/01/16 05:48:32;;;;;;;1.70;0.20;;;1.70;99.90;;;;;;5021873;28;20703;-58
2021/01/16 05:51:00;;;;;;;1.70;0.20;;;1.60;99.90;;;;;;5011590;28;20269;-58
2021/01/16 05:53:26;;;;;;;1.80;0.30;;;1.60;99.90;;;;;;5015198;28;20218;-57
2021/01/16 05:55:57;;;;;;;1.70;0.20;;;1.60;99.90;;;;;;5020213;28;20268;-58
2021/01/16 05:58:26;;;;;;;1.70;0.20;;;1.70;99.90;;;;;;5012651;28;20752;-58
2021/01/16 06:00:52;;;;;;;1.70;0.30;;;1.60;99.90;;;;;;5013489;28;20178;-57
2021/01/16 06:03:20;;;;;;;1.70;0.20;;;1.70;99.90;;;;;;5018217;28;20244;-58
2021/01/16 06:05:52;;;;;;;1.70;0.20;;;1.70;99.90;;;;;;5014096;28;20265;-58
2021/01/16 06:08:19;;;;;;;1.90;0.50;;;1.80;99.90;;;;;;5017902;28;20264;-58
2021/01/16 06:10:51;;;;;;;1.70;0.30;;;1.80;99.90;;;;;;5022117;28;20197;-58
2021/01/16 06:13:19;;;;;;;1.70;0.20;;;1.70;99.90;;;;;;5015149;28;20743;-58
2021/01/16 06:15:48;;;;;;;1.70;0.20;;;1.80;99.90;;;;;;5021242;28;20213;-57
2021/01/16 06:18:17;;;;;;;1.70;0.20;;;1.80;99.90;;;;;;5017660;28;20209;-57
2021/01/16 06:20:51;;;;;;;1.70;0.20;;;1.80;99.90;;;;;;5013429;28;20190;-57
2021/01/16 06:23:19;;;;;;;1.70;0.20;;;1.90;99.90;;;;;;5016235;28;20178;-57
2021/01/16 06:25:56;;;;;;;1.70;0.20;;;1.80;99.90;;;;;;5013738;28;20190;-58
2021/01/16 06:28:28;;;;;;;1.70;0.20;;;1.80;99.90;;;;;;5018512;28;20216;-58
2021/01/16 06:30:58;;;;;;;1.70;0.20;;;1.80;99.90;;;;;;5020816;28;20274;-58
2021/01/16 06:33:29;;;;;;;1.70;0.20;;;1.80;99.90;;;;;;5019926;28;20202;-57
2021/01/16 06:35:58;;;;;;;1.90;0.60;;;1.70;99.90;;;;;;5014670;28;20266;-58
2021/01/16 06:38:31;;;;;;;1.70;0.20;;;1.70;99.90;;;;;;5016318;28;20199;-58
2021/01/16 06:41:13;;;;;;;1.70;0.20;;;1.70;99.90;;;;;;5018832;28;20182;-58
2021/01/16 06:43:42;;;;;;;1.70;0.20;;;1.80;99.90;;;;;;5015815;28;20274;-58
2021/01/16 06:46:10;;;;;;;1.70;0.20;;;1.70;99.90;;;;;;4997936;28;20186;-57
2021/01/16 06:48:44;;;;;;;1.70;0.20;;;1.80;99.90;;;;;;5028713;28;20194;-58
2021/01/16 06:51:12;;;;;;;1.70;0.20;;;1.80;99.90;;;;;;5015738;28;20276;-57
2021/01/16 06:53:38;;;;;;;1.70;0.20;;;1.80;99.90;;;;;;5022235;28;20550;-58
2021/01/16 06:56:10;;;;;;;1.70;0.20;;;1.90;99.90;;;;;;5021195;28;20213;-58
2021/01/16 06:58:40;;;;;;;1.92;1.02;;;1.90;99.90;;;;;;5016727;28;20449;-57
2021/01/16 07:01:07;;;;;;;1.80;0.40;;;1.90;99.90;;;;;;5016919;28;20179;-58
2021/01/16 07:03:38;;;;;;;1.70;0.20;;;1.70;99.90;;;;;;5021558;28;20233;-58
2021/01/16 07:06:04;;;;;;;1.70;0.20;;;1.70;99.90;;;;;;5015426;28;20191;-57
2021/01/16 07:08:31;;;;;;;1.70;0.20;;;1.70;99.90;;;;;;5015723;28;20265;-59
2021/01/16 07:10:59;;;;;;;1.70;0.20;;;1.70;99.90;;;;;;5020897;28;20217;-57
2021/01/16 07:13:24;;;;;;;1.70;0.20;;;1.70;99.90;;;;;;5019952;28;20241;-56
2021/01/16 07:15:53;;;;;;;1.80;0.20;;;1.70;99.90;;;;;;5027399;28;20191;-58
2021/01/16 07:18:19;;;;;;;1.70;0.20;;;1.80;99.90;;;;;;5030787;28;20214;-59
2021/01/16 07:20:47;;;;;;;1.70;0.20;;;1.70;99.90;;;;;;5032211;28;20713;-58
2021/01/16 07:23:16;;;;;;;1.70;0.20;;;1.80;99.90;;;;;;5038459;28;20438;-58
2021/01/16 07:25:42;;;;;;;1.70;0.20;;;1.80;99.90;;;;;;5034626;28;20697;-57
2021/01/16 07:28:10;;;;;;;1.70;0.20;;;1.80;99.90;;;;;;5020911;28;20197;-57
2021/01/16 07:30:36;;;;;;;1.70;0.20;;;1.80;99.90;;;;;;5021006;28;20427;-58
2021/01/16 07:33:03;;;;;;;1.70;0.20;;;1.80;99.90;;;;;;5023060;28;20198;-58
2021/01/16 07:35:29;;;;;;;1.70;0.20;;;1.80;99.90;;;;;;5021699;28;20236;-58
2021/01/16 07:37:54;;;;;;;1.70;0.20;;;1.80;99.90;;;;;;5027454;28;20210;-57
2021/01/16 07:40:28;;;;;;;2.00;0.50;;;1.80;99.90;;;;;;5019426;28;20207;-58
2021/01/16 07:42:56;;;;;;;1.73;0.30;;;1.80;99.90;;;;;;5018933;28;20985;-57
2021/01/16 07:45:23;;;;;;;1.70;0.20;;;1.80;99.90;;;;;;5011963;28;20191;-57
2021/01/16 07:47:51;;;;;;;1.70;0.20;;;1.80;99.90;;;;;;5015728;28;20290;-57
2021/01/16 07:50:25;;;;;;;1.70;0.20;;;1.80;99.90;;;;;;5021303;28;20191;-58
2021/01/16 07:52:57;;;;;;;1.70;0.20;;;1.90;99.90;;;;;;5015572;28;20757;-57
2021/01/16 07:55:34;;;;;;;1.70;0.20;;;1.90;99.90;;;;;;5018159;28;20178;-57
2021/01/16 07:58:23;;;;;;;1.70;0.20;;;2.00;99.90;;;;;;5021062;28;20205;-58
2021/01/16 08:00:57;;;;;;;1.70;0.20;;;2.00;99.90;;;;;;5016760;28;20179;-58
2021/01/16 08:03:44;;;;;;;1.70;0.20;;;1.90;99.90;;;;;;5016655;28;20593;-58
2021/01/16 08:06:15;;;;;;;1.70;0.20;;;1.90;99.90;;;;;;5020291;28;20197;-58
2021/01/16 08:09:03;;;;;;;1.70;0.20;;;1.90;99.90;;;;;;5020058;28;20222;-58
2021/01/16 08:11:31;;;;;;;1.70;0.20;;;1.70;99.90;;;;;;5023238;28;20182;-58
2021/01/16 08:13:58;;;;;;;1.70;0.20;;;1.70;99.90;;;;;;5014241;28;20720;-58
2021/01/16 08:16:25;;;;;;;1.70;0.20;;;1.80;99.90;;;;;;5020280;28;20186;-58
2021/01/16 08:19:01;;;;;;;1.70;0.20;;;1.80;99.90;;;;;;5018441;28;20195;-59
2021/01/16 08:21:27;;;;;;;1.70;0.20;;;1.80;99.90;;;;;;5017060;28;20676;-58
2021/01/16 08:24:02;;;;;;;1.70;0.20;;;1.80;99.90;;;;;;5016149;28;20194;-58
2021/01/16 08:26:28;;;;;;;1.70;0.20;;;1.80;99.90;;;;;;5021294;28;20580;-58
2021/01/16 08:28:57;;;;;;;1.70;0.20;;;1.80;99.90;;;;;;5015344;28;20213;-60
2021/01/16 08:31:30;;;;;;;1.70;0.20;;;1.80;99.90;;;;;;5018594;28;20187;-58
2021/01/16 08:33:55;;;;;;;1.70;0.20;;;1.80;99.90;;;;;;5024980;28;20213;-59
2021/01/16 08:36:22;;;;;;;2.13;1.27;;;1.80;99.90;;;;;;5016550;28;20187;-60
2021/01/16 08:38:49;;;;;;;1.70;0.20;;;1.80;99.90;;;;;;5013447;28;20198;-58
2021/01/16 08:41:25;;;;;;;1.70;0.20;;;1.80;99.90;;;;;;5020966;28;20295;-58
2021/01/16 08:43:58;;;;;;;1.70;0.20;;;1.80;99.90;;;;;;5016475;28;20693;-58
2021/01/16 08:46:35;;;;;;;1.75;0.20;;;1.80;99.90;;;;;;5020691;28;20273;-58
2021/01/16 08:49:15;;;;;;;1.70;0.20;;;1.80;99.90;;;;;;5026586;28;20182;-58
2021/01/16 08:51:51;;;;;;;1.70;0.20;;;1.70;99.90;;;;;;5013905;28;20253;-58
2021/01/16 08:54:18;;;;;;;1.77;0.20;;;1.70;99.90;;;;;;5013397;28;20228;-58
2021/01/16 08:56:52;;;;;;;2.60;2.40;;;1.60;99.90;;;;;;5021531;28;20178;-58
2021/01/16 08:59:28;;;;;;;1.77;0.20;;;1.50;99.90;;;;;;5015483;28;20190;-59
2021/01/16 09:02:03;;;;;;;1.70;0.20;;;1.60;99.90;;;;;;5020590;28;20186;-58
2021/01/16 09:04:33;;;;;;;1.80;0.60;;;1.60;99.90;;;;;;5021469;28;20585;-60
2021/01/16 09:07:22;;;;;;;8.32;2.60;;;1.50;99.90;;;;;;5016183;28;20209;-58
2021/01/16 09:09:53;;;;;;;1.70;0.20;;;1.50;99.90;;;;;;5010516;28;20193;-59
2021/01/16 09:12:32;;;;;;;1.70;0.20;;;1.50;99.90;;;;;;5012401;28;20190;-61
2021/01/16 09:15:39;;;;;;;1.70;0.20;;;1.50;99.90;;;;;;5013153;28;20193;-58
2021/01/16 09:18:12;;;;;;;2.08;1.05;;;1.40;99.90;;;;;;5013504;28;20218;-60
2021/01/16 09:21:05;;;;;;;1.70;0.20;;;1.50;99.90;;;;;;5019374;28;20698;-59
2021/01/16 09:23:32;;;;;;;1.70;0.20;;;1.50;99.90;;;;;;5013192;28;20195;-59
2021/01/16 09:26:03;;;;;;;1.70;0.20;;;1.60;99.90;;;;;;5016967;28;20204;-58
2021/01/16 09:28:53;;;;;;;1.70;0.20;;;1.70;99.90;;;;;;5013689;28;20233;-58
2021/01/16 09:31:25;;;;;;;1.70;0.20;;;1.80;99.90;;;;;;5017520;28;20186;-58
2021/01/16 09:33:57;;;;;;;1.70;0.20;;;1.80;99.90;;;;;;5013881;28;20225;-58
2021/01/16 09:36:34;;;;;;;1.70;0.20;;;1.80;99.90;;;;;;5014288;28;20542;-59
2021/01/16 09:39:01;;;;;;;1.73;0.20;;;1.80;99.90;;;;;;5022055;28;20268;-59
2021/01/16 09:41:35;;;;;;;1.80;0.30;;;1.90;99.90;;;;;;5013129;28;20186;-58
2021/01/16 09:44:04;;;;;;;1.70;0.20;;;1.90;99.90;;;;;;5024935;28;20177;-58
2021/01/16 09:46:37;;;;;;;1.70;0.20;;;2.00;99.90;;;;;;5016215;28;20191;-60
2021/01/16 09:49:04;;;;;;;1.70;0.20;;;2.00;99.90;;;;;;5021678;28;20195;-58
2021/01/16 09:51:31;;;;;;;1.70;0.20;;;2.10;99.90;;;;;;5022497;28;20186;-59
2021/01/16 09:54:14;;;;;;;1.70;0.20;;;2.00;99.90;;;;;;5014160;28;20233;-58
2021/01/16 09:56:47;;;;;;;1.70;0.20;;;2.00;99.90;;;;;;5018012;28;20182;-59
2021/01/16 09:59:24;;;;;;;1.70;0.20;;;2.00;99.90;;;;;;5014720;28;20178;-58
2021/01/16 10:02:08;;;;;;;1.70;0.20;;;2.10;99.90;;;;;;5012173;28;20198;-58
2021/01/16 10:04:44;;;;;;;1.90;0.50;;;2.10;99.90;;;;;;5012402;28;20186;-58
2021/01/16 10:07:16;;;;;;;1.80;0.20;;;2.10;99.90;;;;;;5016586;28;20198;-58
2021/01/16 10:09:44;;;;;;;1.70;0.20;;;2.10;99.90;;;;;;5015259;28;20186;-58
2021/01/16 10:12:35;;;;;;;1.70;0.20;;;2.10;99.90;;;;;;5020013;28;20661;-58
2021/01/16 10:15:06;;;;;;;1.70;0.20;;;2.10;99.90;;;;;;5021540;28;20864;-58
2021/01/16 10:17:36;;;;;;;1.70;0.20;;;2.20;99.90;;;;;;5027488;28;20304;-58
2021/01/16 10:20:06;;;;;;;1.70;0.20;;;2.10;99.90;;;;;;5028154;28;20225;-57
2021/01/16 10:22:33;;;;;;;1.70;0.20;;;2.20;99.90;;;;;;5027329;28;20187;-57
2021/01/16 10:25:00;;;;;;;1.70;0.20;;;2.20;99.90;;;;;;5021259;28;20596;-59
2021/01/16 10:27:46;;;;;;;1.70;0.20;;;2.10;99.90;;;;;;5019895;28;20202;-58
2021/01/16 10:30:23;;;;;;;1.70;0.20;;;2.10;99.90;;;;;;5026891;28;20512;-58
2021/01/16 10:32:50;;;;;;;1.70;0.20;;;2.10;99.90;;;;;;5018896;28;20206;-58
2021/01/16 10:35:22;;;;;;;1.70;0.20;;;2.20;99.90;;;;;;5025778;28;20697;-57
2021/01/16 10:37:48;;;;;;;2.15;1.42;;;2.10;99.90;;;;;;5022856;28;20226;-59
2021/01/16 10:40:14;;;;;;;1.70;0.20;;;2.10;99.90;;;;;;5024421;28;20182;-58
2021/01/16 10:42:51;;;;;;;1.70;0.20;;;2.10;99.90;;;;;;5022566;28;20225;-60
2021/01/16 10:45:18;;;;;;;1.70;0.20;;;2.20;99.90;;;;;;5025273;28;20661;-58
2021/01/16 10:47:45;;;;;;;1.70;0.20;;;2.20;99.90;;;;;;5020676;28;20210;-64
2021/01/16 10:50:24;;;;;;;1.90;0.20;;;2.30;99.90;;;;;;5018935;28;20205;-58
2021/01/16 10:53:05;;;;;;;6.15;2.13;;;2.20;99.90;;;;;;5020473;28;20229;-57
2021/01/16 10:55:54;;;;;;;2.97;1.55;;;1.90;99.90;;;;;;5003439;28;20213;-58
2021/01/16 10:58:27;;;;;;;1.70;0.20;;;1.60;99.90;;;;;;5026653;28;20218;-58
2021/01/16 11:00:58;;;;;;;1.88;0.60;;;1.60;99.90;;;;;;5031757;28;20183;-62
2021/01/16 11:03:30;;;;;;;1.70;0.20;;;1.50;99.90;;;;;;5026700;28;20228;-58
2021/01/16 11:06:16;;;;;;;1.70;0.20;;;1.40;99.90;;;;;;5032657;28;20183;-58
2021/01/16 11:08:42;;;;;;;2.65;0.65;;;1.50;99.90;;;;;;5026056;28;20297;-58
2021/01/16 11:11:23;;;;;;;1.70;0.20;;;1.60;99.90;;;;;;5021039;28;20701;-58
2021/01/16 11:13:50;;;;;;;1.70;0.20;;;1.70;99.90;;;;;;5031575;28;20213;-59
2021/01/16 11:16:17;;;;;;;1.90;0.90;;;1.80;99.90;;;;;;5019268;28;20193;-58
2021/01/16 11:18:43;;;;;;;1.70;0.20;;;1.70;99.90;;;;;;5023922;28;20210;-58
2021/01/16 11:21:11;;;;;;;1.70;0.20;;;1.80;99.90;;;;;;5016789;28;20179;-58
2021/01/16 11:23:45;;;;;;;1.70;0.20;;;1.90;99.90;;;;;;5016777;28;20182;-58
2021/01/16 11:26:13;;;;;;;1.80;0.40;;;2.00;99.90;;;;;;5018986;28;20806;-58
2021/01/16 11:28:53;;;;;;;1.70;0.20;;;2.00;99.90;;;;;;5024110;28;20209;-59
2021/01/16 11:31:33;;;;;;;1.70;0.20;;;2.00;99.90;;;;;;5013328;28;20182;-59
2021/01/16 11:34:08;;;;;;;1.70;0.20;;;1.90;99.90;;;;;;5023371;28;20293;-58
2021/01/16 11:36:35;;;;;;;1.70;0.20;;;1.90;99.90;;;;;;5018965;28;22247;-58
2021/01/16 11:39:00;;;;;;;1.70;0.20;;;1.90;99.90;;;;;;5018816;28;20182;-58
2021/01/16 11:41:52;;;;;;;1.70;0.20;;;1.90;99.90;;;;;;5022843;28;20178;-58
2021/01/16 11:44:21;;;;;;;8.95;4.72;;;1.80;99.90;;;;;;5017930;28;20218;-57
2021/01/16 11:46:53;;;;;;;2.45;0.95;;;1.60;99.90;;;;;;5012587;28;20296;-58
2021/01/16 11:49:20;;;;;;;2.25;1.25;;;1.50;99.90;;;;;;5009668;28;20203;-59
2021/01/16 11:51:45;;;;;;;1.70;0.20;;;1.30;99.90;;;;;;5016230;28;20262;-58
2021/01/16 11:54:11;;;;;;;2.50;1.30;;;1.30;99.90;;;;;;5012114;28;20282;-58
2021/01/16 11:56:38;;;;;;;2.30;0.83;;;1.40;99.90;;;;;;5006631;28;20195;-56
2021/01/16 11:59:04;;;;;;;5.85;1.88;;;1.30;99.90;;;;;;5015335;28;20178;-58
2021/01/16 12:01:36;;;;;;;2.35;0.82;;;1.30;99.90;;;;;;5010902;28;20194;-58
2021/01/16 12:04:05;;;;;;;4.65;2.58;;;1.20;99.90;;;;;;5012176;28;20721;-58
2021/01/16 12:06:32;;;;;;;4.45;2.70;;;1.20;99.90;;;;;;5010687;28;20190;-58
2021/01/16 12:08:58;;;;;;;1.98;0.50;;;1.20;99.90;;;;;;5015348;28;20277;-58
2021/01/16 12:11:25;;;;;;;1.70;0.20;;;1.10;99.90;;;;;;5024677;28;20545;-57
2021/01/16 12:13:51;;;;;;;1.90;0.50;;;1.10;99.90;;;;;;5018348;28;20581;-58
2021/01/16 12:16:18;;;;;;;3.60;2.25;;;1.20;99.90;;;;;;5025766;28;20257;-58
2021/01/16 12:18:44;;;;;;;1.70;0.20;;;1.10;99.90;;;;;;5017358;28;20574;-59
2021/01/16 12:21:10;;;;;;;1.70;0.20;;;1.10;99.90;;;;;;5013592;28;20225;-58
2021/01/16 12:23:45;;;;;;;5.90;3.53;;;1.10;99.90;;;;;;5020586;28;20189;-58
2021/01/16 12:26:15;;;;;;;4.38;2.53;;;1.10;99.90;;;;;;5018471;28;20190;-59
2021/01/16 12:28:51;;;;;;;1.70;0.20;;;1.20;99.90;;;;;;5018124;28;20612;-59
2021/01/16 12:31:23;;;;;;;3.30;1.63;;;1.30;99.90;;;;;;5018373;28;20181;-58
2021/01/16 12:33:49;;;;;;;1.90;0.30;;;1.30;99.90;;;;;;5015140;28;20218;-59
2021/01/16 12:36:16;;;;;;;1.70;0.20;;;1.30;99.90;;;;;;5017768;28;20660;-58
2021/01/16 12:38:50;;;;;;;4.88;3.42;;;1.40;99.90;;;;;;5016655;28;20285;-59
2021/01/16 12:41:23;;;;;;;5.57;3.17;;;1.30;99.90;;;;;;5014467;28;20210;-61
2021/01/16 12:43:50;;;;;;;1.80;0.40;;;1.10;99.90;;;;;;5028240;28;20540;-59
2021/01/16 12:46:17;;;;;;;1.80;0.35;;;1.20;99.90;;;;;;5026228;28;20187;-59
2021/01/16 12:48:43;;;;;;;1.70;0.20;;;1.20;99.90;;;;;;5030912;28;20293;-59
2021/01/16 12:51:09;;;;;;;6.40;2.67;;;1.20;99.90;;;;;;5034479;28;20186;-59
2021/01/16 12:53:36;;;;;;;1.70;0.20;;;1.10;99.90;;;;;;5022871;28;20707;-58
2021/01/16 12:56:12;;;;;;;1.80;0.47;;;1.20;99.90;;;;;;5025332;28;20437;-59
2021/01/16 12:58:42;;;;;;;2.05;0.40;;;1.10;99.90;;;;;;5027301;28;20213;-57
2021/01/16 13:01:08;;;;;;;3.30;1.70;;;1.30;99.90;;;;;;5030848;28;20268;-59
2021/01/16 13:03:33;;;;;;;4.20;2.97;;;1.20;99.90;;;;;;5028672;28;20186;-58
2021/01/16 13:06:01;;;;;;;3.63;1.43;;;1.20;99.90;;;;;;5024710;28;20423;-59
2021/01/16 13:08:27;;;;;;;3.72;2.40;;;1.00;99.90;;;;;;5017142;28;20209;-59
2021/01/16 13:10:54;;;;;;;1.70;0.20;;;1.00;99.90;;;;;;5018120;28;20205;-58